Time;durP1;ratioP1;P1;durP2;ratioP2;P2;SDS_P1;SDS_P2;PMS_P1;PMS_P2;Temp;Humidity;BMP_temperature;BMP_pressure;BME280_temperature;BME280_humidity;BME280_pressure;Samples;Min_cycle;Max_cycle;Signal;HPM_P1;HPM_P2
2023/02/19 00:01:28;;;;;;;45.70;27.10;;;10.10;99.90;;;;;;5034546;28;20044;-74
2023/02/19 00:03:57;;;;;;;45.70;26.25;;;10.10;99.90;;;;;;5034674;28;20425;-77
2023/02/19 00:06:26;;;;;;;50.75;28.02;;;10.10;99.90;;;;;;5027552;28;20047;-75
2023/02/19 00:08:53;;;;;;;61.22;32.28;;;10.10;99.90;;;;;;5042110;28;20041;-76
2023/02/19 00:11:21;;;;;;;73.75;36.25;;;10.10;99.90;;;;;;5033989;28;20051;-75
2023/02/19 00:13:50;;;;;;;59.22;32.63;;;10.10;99.90;;;;;;5044007;28;20430;-74
2023/02/19 00:16:19;;;;;;;81.28;39.50;;;10.10;99.90;;;;;;5039798;28;20503;-74
2023/02/19 00:18:46;;;;;;;66.15;35.95;;;10.10;99.90;;;;;;5039553;28;20430;-73
2023/02/19 00:21:13;;;;;;;85.65;40.55;;;10.10;99.90;;;;;;5032935;28;20041;-75
2023/02/19 00:23:40;;;;;;;63.90;35.38;;;10.10;99.90;;;;;;5035282;28;20025;-76
2023/02/19 00:26:09;;;;;;;63.13;32.47;;;10.10;99.90;;;;;;5036432;28;20041;-74
2023/02/19 00:28:38;;;;;;;68.15;33.88;;;10.10;99.90;;;;;;5026866;28;20037;-75
2023/02/19 00:31:05;;;;;;;59.92;32.35;;;10.00;99.90;;;;;;5037842;28;20047;-75
2023/02/19 00:33:32;;;;;;;57.38;31.90;;;10.00;99.90;;;;;;5047865;28;20107;-75
2023/02/19 00:36:02;;;;;;;64.22;33.97;;;10.00;99.90;;;;;;5043133;28;20036;-76
2023/02/19 00:38:29;;;;;;;60.65;32.53;;;10.00;99.90;;;;;;5036305;28;20059;-77
2023/02/19 00:40:59;;;;;;;65.35;33.45;;;10.00;99.90;;;;;;5040139;28;20045;-76
2023/02/19 00:43:25;;;;;;;49.85;27.42;;;10.00;99.90;;;;;;5048311;28;20032;-76
2023/02/19 00:45:52;;;;;;;54.72;30.33;;;10.00;99.90;;;;;;5029201;28;20049;-77
2023/02/19 00:48:18;;;;;;;59.42;29.42;;;10.00;99.90;;;;;;5037651;28;20439;-77
2023/02/19 00:50:45;;;;;;;44.03;24.77;;;10.00;99.90;;;;;;5036303;28;20507;-79
2023/02/19 00:53:11;;;;;;;58.72;30.48;;;10.00;99.90;;;;;;5037973;28;20028;-80
2023/02/19 00:55:37;;;;;;;51.70;28.58;;;10.00;99.90;;;;;;5033030;28;20035;-77
2023/02/19 00:58:04;;;;;;;56.17;31.95;;;10.00;99.90;;;;;;5037787;28;20462;-79
2023/02/19 01:00:32;;;;;;;52.05;29.95;;;10.00;99.90;;;;;;5036507;28;20040;-79
2023/02/19 01:02:58;;;;;;;43.75;27.27;;;10.00;99.90;;;;;;5023040;28;20040;-79
2023/02/19 01:05:25;;;;;;;54.60;30.23;;;10.00;99.90;;;;;;5040432;28;20511;-80
2023/02/19 01:07:51;;;;;;;47.45;27.83;;;10.00;99.90;;;;;;5040645;28;20380;-80
2023/02/19 01:10:18;;;;;;;45.35;25.13;;;10.00;99.90;;;;;;5038173;28;20404;-78
2023/02/19 01:12:45;;;;;;;45.60;26.73;;;10.00;99.90;;;;;;5017658;28;20048;-78
2023/02/19 01:15:11;;;;;;;44.92;24.42;;;9.90;99.90;;;;;;5042937;28;20043;-77
2023/02/19 01:17:37;;;;;;;40.97;25.13;;;9.90;99.90;;;;;;5041786;28;20416;-76
2023/02/19 01:20:04;;;;;;;53.35;29.95;;;9.90;99.90;;;;;;5036595;28;20040;-78
2023/02/19 01:22:30;;;;;;;45.35;27.95;;;9.90;99.90;;;;;;5036857;28;20395;-77
2023/02/19 01:24:57;;;;;;;44.88;26.75;;;9.90;99.90;;;;;;5042151;28;20044;-77
2023/02/19 01:27:23;;;;;;;46.95;27.52;;;9.90;99.90;;;;;;5039359;28;20037;-77
2023/02/19 01:29:49;;;;;;;51.80;28.95;;;9.90;99.90;;;;;;5033121;28;20040;-76
2023/02/19 01:32:15;;;;;;;58.88;31.05;;;9.90;99.90;;;;;;5043518;28;20523;-77
2023/02/19 01:34:42;;;;;;;53.95;28.60;;;9.90;99.90;;;;;;5027542;28;20040;-75
2023/02/19 01:37:10;;;;;;;64.60;35.47;;;9.90;99.90;;;;;;5040260;28;20046;-75
2023/02/19 01:39:38;;;;;;;59.20;32.15;;;9.90;99.90;;;;;;5041632;28;20028;-76
2023/02/19 01:42:11;;;;;;;61.42;33.47;;;9.90;99.90;;;;;;5025017;28;20036;-77
2023/02/19 01:44:37;;;;;;;;;;;9.90;99.90;;;;;;5027742;28;20051;-76
2023/02/19 01:47:03;;;;;;;48.78;28.92;;;9.90;99.90;;;;;;5038469;28;19908;-75
2023/02/19 01:49:37;;;;;;;58.95;33.15;;;9.90;99.90;;;;;;5054356;28;20024;-75
2023/02/19 01:52:11;;;;;;;61.42;31.90;;;9.90;99.90;;;;;;5038802;28;20703;-75
2023/02/19 01:54:41;;;;;;;50.50;30.05;;;9.90;99.90;;;;;;5035134;28;20312;-74
2023/02/19 01:57:15;;;;;;;51.95;32.22;;;9.90;99.90;;;;;;5027725;28;20071;-74
2023/02/19 01:59:42;;;;;;;56.33;31.83;;;9.90;99.90;;;;;;5056067;28;20051;-74
2023/02/19 02:02:08;;;;;;;47.58;28.17;;;9.90;99.90;;;;;;5035579;28;20040;-74
2023/02/19 02:04:35;;;;;;;49.85;32.63;;;9.90;99.90;;;;;;5032259;28;20055;-75
2023/02/19 02:10:18;;;;;;;51.72;30.45;;;9.80;99.90;;;;;;5042975;28;20118;-76
2023/02/19 02:12:35;;;;;;;44.50;27.70;;;9.80;99.90;;;;;;5039783;28;20041;-75
2023/02/19 02:15:02;;;;;;;44.22;28.25;;;9.80;99.90;;;;;;5043687;28;20434;-76
2023/02/19 02:17:36;;;;;;;52.13;28.35;;;9.80;99.90;;;;;;5031900;28;20044;-75
2023/02/19 02:20:27;;;;;;;55.15;28.35;;;9.80;99.90;;;;;;5054323;28;20395;-75
2023/02/19 02:23:07;;;;;;;53.10;28.83;;;9.80;99.90;;;;;;5038881;28;20474;-79
2023/02/19 02:25:37;;;;;;;42.42;26.88;;;9.80;99.90;;;;;;5043177;28;20493;-77
2023/02/19 02:28:27;;;;;;;44.45;25.38;;;9.80;99.90;;;;;;5037392;28;20553;-77
2023/02/19 02:31:03;;;;;;;49.10;25.92;;;9.80;99.90;;;;;;5061949;28;20044;-78
2023/02/19 02:33:38;;;;;;;47.47;25.63;;;9.80;99.90;;;;;;5037404;28;20471;-77
2023/02/19 02:36:19;;;;;;;44.58;25.65;;;9.80;99.90;;;;;;5034609;28;20475;-81
2023/02/19 02:38:46;;;;;;;45.17;24.80;;;9.80;99.90;;;;;;5054761;28;20033;-77
2023/02/19 02:41:13;;;;;;;39.45;23.25;;;9.80;99.90;;;;;;5026053;28;20036;-78
2023/02/19 02:43:40;;;;;;;48.03;23.75;;;9.70;99.90;;;;;;5037592;28;20047;-79
2023/02/19 02:46:11;;;;;;;54.17;29.25;;;9.80;99.90;;;;;;5041747;28;20052;-77
2023/02/19 02:49:02;;;;;;;43.58;24.08;;;9.70;99.90;;;;;;5048207;28;20081;-78
2023/02/19 02:51:34;;;;;;;58.38;31.45;;;9.70;99.90;;;;;;5040457;28;20028;-77
2023/02/19 02:57:01;;;;;;;49.53;24.85;;;9.70;99.90;;;;;;5060681;28;20035;-77
2023/02/19 02:59:34;;;;;;;45.22;26.33;;;9.70;99.90;;;;;;5014227;28;20035;-77
2023/02/19 03:02:09;;;;;;;54.90;26.00;;;9.70;99.90;;;;;;5029687;28;20039;-76
2023/02/19 03:07:53;;;;;;;42.60;22.27;;;9.70;99.90;;;;;;5049134;28;20036;-77
2023/02/19 03:10:40;;;;;;;46.72;23.17;;;9.60;99.90;;;;;;5040120;28;20044;-75
2023/02/19 03:21:42;;;;;;;37.75;20.65;;;9.60;99.90;;;;;;5030079;28;20048;-76
2023/02/19 03:26:58;;;;;;;30.35;17.10;;;9.60;99.90;;;;;;5040420;28;20033;-77
2023/02/19 03:29:33;;;;;;;33.47;16.60;;;9.60;99.90;;;;;;5033457;28;20039;-77
2023/02/19 03:32:10;;;;;;;32.67;15.35;;;9.60;99.90;;;;;;5030848;28;20051;-75
2023/02/19 03:34:39;;;;;;;;;;;9.60;99.90;;;;;;5028999;28;20040;-77
2023/02/19 03:37:12;;;;;;;32.53;15.38;;;9.60;99.90;;;;;;5024381;28;19916;-75
2023/02/19 03:39:43;;;;;;;30.40;15.57;;;9.60;99.90;;;;;;5009870;28;20032;-79
2023/02/19 03:42:31;;;;;;;29.77;16.60;;;9.60;99.90;;;;;;5058599;28;20053;-76
2023/02/19 03:45:23;;;;;;;28.35;14.45;;;9.60;99.90;;;;;;5061090;28;20057;-76
2023/02/19 03:48:18;;;;;;;30.42;14.70;;;9.60;99.90;;;;;;5037479;28;20040;-78
2023/02/19 03:50:59;;;;;;;27.35;13.95;;;9.60;99.90;;;;;;5033854;28;20025;-78
2023/02/19 03:53:45;;;;;;;29.48;14.48;;;9.60;99.90;;;;;;5033331;28;20058;-76
2023/02/19 03:56:59;;;;;;;27.17;14.88;;;9.60;99.90;;;;;;5005017;28;20391;-75
2023/02/19 03:59:45;;;;;;;;;;;9.60;99.90;;;;;;5009197;28;20391;-75
2023/02/19 04:02:35;;;;;;;26.13;13.82;;;9.60;99.90;;;;;;5015992;28;20398;-75
2023/02/19 04:05:10;;;;;;;16.73;10.45;;;9.60;99.90;;;;;;5024051;28;20044;-76
2023/02/19 04:07:43;;;;;;;20.35;11.70;;;9.60;99.90;;;;;;5022341;28;20476;-75
2023/02/19 04:10:09;;;;;;;;;;;9.60;99.90;;;;;;5038163;28;20039;-75
2023/02/19 04:12:48;;;;;;;26.17;12.93;;;9.60;99.90;;;;;;5019998;28;19931;-76
2023/02/19 04:15:19;;;;;;;32.42;13.23;;;9.50;99.90;;;;;;5042502;28;20040;-75
2023/02/19 04:17:54;;;;;;;21.42;12.98;;;9.60;99.90;;;;;;5043797;28;20033;-77
2023/02/19 04:20:23;;;;;;;30.95;13.95;;;9.60;99.90;;;;;;5037540;28;20032;-76
2023/02/19 04:22:50;;;;;;;22.77;12.18;;;9.60;99.90;;;;;;5038733;28;20059;-77
2023/02/19 04:25:16;;;;;;;23.55;12.98;;;9.60;99.90;;;;;;5041295;28;20036;-78
2023/02/19 04:27:44;;;;;;;20.83;12.35;;;9.60;99.90;;;;;;5048987;28;20033;-77
2023/02/19 04:30:12;;;;;;;21.55;12.55;;;9.50;99.90;;;;;;5035425;28;20240;-75
2023/02/19 04:32:39;;;;;;;25.85;13.85;;;9.50;99.90;;;;;;5037835;28;20036;-75
2023/02/19 04:35:05;;;;;;;26.60;12.88;;;9.50;99.90;;;;;;5042834;28;20479;-75
2023/02/19 04:37:31;;;;;;;23.70;13.70;;;9.50;99.90;;;;;;5040429;28;20498;-76
2023/02/19 04:39:58;;;;;;;23.15;11.85;;;9.50;99.90;;;;;;5036436;28;20371;-79
2023/02/19 04:42:24;;;;;;;23.10;12.68;;;9.50;99.90;;;;;;5035774;28;20076;-76
2023/02/19 04:44:50;;;;;;;25.10;13.98;;;9.50;99.90;;;;;;5039550;28;20052;-76
2023/02/19 04:47:16;;;;;;;26.00;13.02;;;9.50;99.90;;;;;;5042234;28;20047;-76
2023/02/19 04:49:44;;;;;;;24.05;13.40;;;9.50;99.90;;;;;;5036478;28;20028;-75
2023/02/19 04:52:10;;;;;;;21.88;12.38;;;9.50;99.90;;;;;;5038079;28;20930;-76
2023/02/19 04:54:36;;;;;;;20.73;11.35;;;9.40;99.90;;;;;;5041921;28;20021;-76
2023/02/19 04:57:03;;;;;;;22.67;12.80;;;9.40;99.90;;;;;;5041864;28;20041;-76
2023/02/19 04:59:29;;;;;;;22.67;12.20;;;9.50;99.90;;;;;;5033370;28;20033;-76
2023/02/19 05:01:56;;;;;;;24.55;11.57;;;9.40;99.90;;;;;;5036790;28;20036;-75
2023/02/19 05:04:24;;;;;;;20.63;12.18;;;9.50;99.90;;;;;;5039806;28;20037;-74
2023/02/19 05:06:50;;;;;;;18.58;11.38;;;9.40;99.90;;;;;;5023730;28;20522;-75
2023/02/19 05:09:17;;;;;;;24.52;11.38;;;9.40;99.90;;;;;;5035708;28;20028;-77
2023/02/19 05:11:43;;;;;;;21.02;11.35;;;9.40;99.90;;;;;;5030309;28;20041;-75
2023/02/19 05:14:09;;;;;;;21.60;11.57;;;9.40;99.90;;;;;;5038416;28;20033;-75
2023/02/19 05:16:36;;;;;;;24.58;13.23;;;9.40;99.90;;;;;;5037554;28;20044;-75
2023/02/19 05:19:02;;;;;;;22.60;11.85;;;9.30;99.90;;;;;;5034314;28;20568;-76
2023/02/19 05:21:28;;;;;;;21.05;11.68;;;9.30;99.90;;;;;;5037259;28;20555;-75
2023/02/19 05:23:55;;;;;;;24.80;13.57;;;9.30;99.90;;;;;;5041169;28;20506;-74
2023/02/19 05:26:22;;;;;;;24.50;14.15;;;9.30;99.90;;;;;;5027869;28;20045;-77
2023/02/19 05:28:52;;;;;;;29.77;13.98;;;9.30;99.90;;;;;;5027401;28;20040;-75
2023/02/19 05:31:19;;;;;;;22.95;12.82;;;9.30;99.90;;;;;;5034856;28;20043;-75
2023/02/19 05:33:49;;;;;;;23.52;12.50;;;9.30;99.90;;;;;;5030272;28;20025;-75
2023/02/19 05:36:17;;;;;;;18.27;12.05;;;9.30;99.90;;;;;;5041210;28;20032;-74
2023/02/19 05:38:43;;;;;;;35.25;14.93;;;9.30;99.90;;;;;;5033312;28;20029;-75
2023/02/19 05:41:12;;;;;;;33.63;15.35;;;9.30;99.90;;;;;;5021475;28;20483;-76
2023/02/19 05:43:39;;;;;;;25.48;13.27;;;9.30;99.90;;;;;;5039376;28;20041;-78
2023/02/19 05:46:07;;;;;;;25.75;12.48;;;9.30;99.90;;;;;;5039199;28;20874;-77
2023/02/19 05:48:33;;;;;;;24.15;12.98;;;9.30;99.90;;;;;;5037502;28;20036;-78
2023/02/19 05:51:05;;;;;;;24.88;12.60;;;9.30;99.90;;;;;;5037911;28;20040;-78
2023/02/19 05:53:32;;;;;;;23.45;13.32;;;9.30;99.90;;;;;;5039452;28;20048;-81
2023/02/19 05:55:58;;;;;;;26.30;14.95;;;9.30;99.90;;;;;;5038626;28;20041;-79
2023/02/19 05:58:26;;;;;;;26.42;13.20;;;9.30;99.90;;;;;;5037040;28;20029;-80
2023/02/19 06:00:53;;;;;;;23.15;12.68;;;9.30;99.90;;;;;;5038722;28;20041;-78
2023/02/19 06:03:19;;;;;;;20.90;12.00;;;9.30;99.90;;;;;;5038059;28;20055;-77
2023/02/19 06:05:45;;;;;;;27.45;13.73;;;9.30;99.90;;;;;;5046723;28;21438;-77
2023/02/19 06:08:13;;;;;;;30.52;15.98;;;9.30;99.90;;;;;;5034291;28;20489;-77
2023/02/19 06:10:40;;;;;;;22.67;13.63;;;9.20;99.90;;;;;;5018214;28;20060;-80
2023/02/19 06:13:08;;;;;;;29.88;13.45;;;9.30;99.90;;;;;;5035624;28;20399;-77
2023/02/19 06:15:36;;;;;;;31.52;13.85;;;9.30;99.90;;;;;;5029935;28;20036;-77
2023/02/19 06:18:03;;;;;;;27.48;14.23;;;9.30;99.90;;;;;;5043395;28;20032;-79
2023/02/19 06:20:29;;;;;;;26.63;13.80;;;9.30;99.90;;;;;;5036028;28;20435;-76
2023/02/19 06:22:56;;;;;;;23.73;11.45;;;9.30;99.90;;;;;;5034980;28;20033;-76
2023/02/19 06:25:22;;;;;;;28.13;13.88;;;9.20;99.90;;;;;;5040406;28;20029;-78
2023/02/19 06:27:48;;;;;;;25.98;12.55;;;9.20;99.90;;;;;;5037823;28;20036;-77
2023/02/19 06:30:14;;;;;;;21.75;12.32;;;9.20;99.90;;;;;;5033482;28;20048;-76
2023/02/19 06:32:41;;;;;;;19.92;12.20;;;9.30;99.90;;;;;;5034772;28;20040;-78
2023/02/19 06:35:07;;;;;;;27.83;12.20;;;9.20;99.90;;;;;;5037924;28;20487;-75
2023/02/19 06:37:33;;;;;;;27.85;13.63;;;9.20;99.90;;;;;;5037732;28;20033;-75
2023/02/19 06:40:00;;;;;;;23.10;12.70;;;9.20;99.90;;;;;;5032699;28;20037;-74
2023/02/19 06:42:26;;;;;;;32.33;14.60;;;9.20;99.90;;;;;;5034304;28;20044;-76
2023/02/19 06:44:52;;;;;;;29.85;14.48;;;9.20;99.90;;;;;;5055135;28;20068;-76
2023/02/19 06:47:18;;;;;;;30.95;14.75;;;9.20;99.90;;;;;;5042449;28;20032;-76
2023/02/19 06:49:45;;;;;;;34.42;15.18;;;9.20;99.90;;;;;;5033524;28;20029;-75
2023/02/19 06:52:11;;;;;;;27.73;13.95;;;9.20;99.90;;;;;;5032562;28;20045;-75
2023/02/19 06:54:37;;;;;;;29.33;14.02;;;9.20;99.90;;;;;;5037050;28;20037;-74
2023/02/19 06:57:04;;;;;;;33.05;16.75;;;9.20;99.90;;;;;;5036712;28;20567;-74
2023/02/19 06:59:30;;;;;;;27.98;14.88;;;9.20;99.90;;;;;;5031264;28;20041;-74
2023/02/19 07:01:56;;;;;;;34.65;18.25;;;9.20;99.90;;;;;;5034907;28;20033;-74
2023/02/19 07:04:23;;;;;;;33.83;16.35;;;9.20;99.90;;;;;;5040005;28;20886;-74
2023/02/19 07:06:49;;;;;;;33.53;16.55;;;9.20;99.90;;;;;;5037326;28;20491;-74
2023/02/19 07:09:15;;;;;;;38.05;19.25;;;9.20;99.90;;;;;;5017334;28;20048;-74
2023/02/19 07:11:42;;;;;;;30.50;17.92;;;9.20;99.90;;;;;;5020025;28;20033;-73
2023/02/19 07:14:13;;;;;;;25.83;16.42;;;9.20;99.90;;;;;;5034156;28;20052;-76
2023/02/19 07:16:40;;;;;;;35.93;18.80;;;9.20;99.90;;;;;;5045370;28;20550;-77
2023/02/19 07:19:06;;;;;;;34.13;19.83;;;9.20;99.90;;;;;;5033346;28;20770;-74
2023/02/19 07:21:36;;;;;;;42.05;19.88;;;9.20;99.90;;;;;;5019295;28;20044;-74
2023/02/19 07:24:04;;;;;;;42.40;20.20;;;9.20;99.90;;;;;;5021450;28;20471;-74
2023/02/19 07:26:31;;;;;;;39.75;20.85;;;9.20;99.90;;;;;;5041405;28;20036;-74
2023/02/19 07:28:57;;;;;;;37.75;19.05;;;9.20;99.90;;;;;;5030689;28;20037;-74
2023/02/19 07:31:23;;;;;;;36.92;21.63;;;9.20;99.90;;;;;;5037850;28;20037;-75
2023/02/19 07:33:51;;;;;;;41.40;21.15;;;9.20;99.90;;;;;;5038229;28;20037;-74
2023/02/19 07:36:19;;;;;;;37.47;19.52;;;9.10;99.90;;;;;;5038524;28;20033;-76
2023/02/19 07:38:45;;;;;;;34.58;20.42;;;9.10;99.90;;;;;;5032538;28;20041;-75
2023/02/19 07:41:11;;;;;;;30.38;18.75;;;9.10;99.90;;;;;;5038319;28;20029;-77
2023/02/19 07:43:39;;;;;;;35.90;18.00;;;9.10;99.90;;;;;;5039902;28;20044;-76
2023/02/19 07:46:10;;;;;;;34.90;16.88;;;9.10;99.90;;;;;;5041195;28;20570;-77
2023/02/19 07:48:38;;;;;;;32.90;16.15;;;9.20;99.90;;;;;;5036819;28;20632;-77
2023/02/19 07:51:07;;;;;;;27.88;16.55;;;9.20;99.90;;;;;;5039682;28;21167;-75
2023/02/19 07:53:34;;;;;;;31.90;18.08;;;9.20;99.90;;;;;;5024113;28;20040;-73
2023/02/19 07:56:03;;;;;;;33.05;18.85;;;9.20;99.90;;;;;;5051042;28;20427;-76
2023/02/19 07:58:30;;;;;;;37.20;19.35;;;9.20;99.90;;;;;;5038529;28;20037;-77
2023/02/19 08:00:56;;;;;;;41.70;23.27;;;9.20;99.90;;;;;;5045632;28;20789;-74
2023/02/19 08:03:23;;;;;;;39.40;22.33;;;9.20;99.90;;;;;;5040456;28;20029;-75
2023/02/19 08:05:50;;;;;;;42.17;22.92;;;9.20;99.90;;;;;;5042223;28;20122;-75
2023/02/19 08:08:16;;;;;;;42.53;21.98;;;9.20;99.90;;;;;;5037582;28;20048;-76
2023/02/19 08:13:29;;;;;;;42.88;23.50;;;9.30;99.90;;;;;;5039012;28;20070;-77
2023/02/19 08:16:11;;;;;;;37.78;22.65;;;9.30;99.90;;;;;;5040289;28;20040;-75
2023/02/19 08:18:37;;;;;;;41.83;24.90;;;9.40;99.90;;;;;;5035717;28;20025;-76
2023/02/19 08:21:03;;;;;;;46.92;25.23;;;9.40;99.90;;;;;;5036800;28;20048;-75
2023/02/19 08:23:30;;;;;;;33.00;20.25;;;9.40;99.90;;;;;;5038856;28;20476;-74
2023/02/19 08:25:58;;;;;;;41.92;24.23;;;9.50;99.90;;;;;;5038469;28;20039;-75
2023/02/19 08:28:25;;;;;;;37.05;22.05;;;9.50;99.90;;;;;;5035191;28;20044;-77
2023/02/19 08:30:52;;;;;;;36.58;20.50;;;9.50;99.90;;;;;;5036386;28;20055;-75
2023/02/19 08:33:20;;;;;;;33.10;18.90;;;9.60;99.90;;;;;;5036297;28;20403;-73
2023/02/19 08:35:47;;;;;;;41.58;20.15;;;9.70;99.90;;;;;;5038113;28;20025;-74
2023/02/19 08:38:17;;;;;;;40.95;20.70;;;9.70;99.90;;;;;;5038007;28;20404;-74
2023/02/19 08:40:43;;;;;;;44.13;22.88;;;9.70;99.90;;;;;;5036881;28;20029;-76
2023/02/19 08:43:13;;;;;;;42.97;23.65;;;9.70;99.90;;;;;;5045059;28;20051;-74
2023/02/19 08:45:41;;;;;;;40.42;22.90;;;9.70;99.90;;;;;;5038232;28;20057;-75
2023/02/19 08:48:08;;;;;;;41.30;20.88;;;9.80;99.90;;;;;;5037771;28;20036;-75
2023/02/19 08:50:34;;;;;;;42.85;21.63;;;9.80;99.90;;;;;;5036978;28;20036;-74
2023/02/19 08:53:01;;;;;;;40.65;21.80;;;9.90;99.90;;;;;;5035918;28;20489;-76
2023/02/19 08:55:28;;;;;;;38.55;21.20;;;9.90;99.90;;;;;;5054541;28;21070;-74
2023/02/19 08:57:54;;;;;;;36.35;21.15;;;10.00;99.90;;;;;;5036941;28;20037;-75
2023/02/19 09:00:21;;;;;;;46.72;21.63;;;10.00;99.90;;;;;;5033257;28;20044;-76
2023/02/19 09:02:48;;;;;;;29.63;18.23;;;10.00;99.90;;;;;;5035563;28;20037;-77
2023/02/19 09:05:15;;;;;;;37.92;19.35;;;10.00;99.90;;;;;;5023875;28;20048;-74
2023/02/19 09:07:42;;;;;;;38.80;21.23;;;10.00;99.90;;;;;;5025786;28;20372;-74
2023/02/19 09:10:13;;;;;;;32.58;19.58;;;10.00;99.90;;;;;;5037974;28;20482;-75
2023/02/19 09:12:40;;;;;;;36.63;22.52;;;10.00;99.90;;;;;;5037285;28;20503;-74
2023/02/19 09:15:07;;;;;;;39.90;21.70;;;10.00;99.90;;;;;;5039138;28;20522;-74
2023/02/19 09:17:33;;;;;;;39.15;19.58;;;10.00;99.90;;;;;;5039265;28;20059;-74
2023/02/19 09:19:59;;;;;;;46.40;22.05;;;10.00;99.90;;;;;;5034823;28;20025;-73
2023/02/19 09:22:25;;;;;;;43.20;21.35;;;10.00;99.90;;;;;;5040047;28;20024;-75
2023/02/19 09:24:52;;;;;;;46.67;22.75;;;10.00;99.90;;;;;;5042643;28;20028;-74
2023/02/19 09:27:19;;;;;;;39.92;21.67;;;10.00;99.90;;;;;;5035944;28;20033;-74
2023/02/19 09:29:46;;;;;;;42.58;21.63;;;9.90;99.90;;;;;;5034627;28;20032;-75
2023/02/19 09:32:13;;;;;;;41.00;21.15;;;9.90;99.90;;;;;;5034844;28;20032;-75
2023/02/19 09:34:39;;;;;;;35.63;20.67;;;9.90;99.90;;;;;;5036735;28;20036;-77
2023/02/19 09:37:06;;;;;;;33.38;19.13;;;9.80;99.90;;;;;;5044815;28;20881;-77
2023/02/19 09:39:33;;;;;;;37.38;20.23;;;9.80;99.90;;;;;;5031017;28;20032;-77
2023/02/19 09:42:14;;;;;;;34.55;17.75;;;9.90;99.90;;;;;;5031885;28;20033;-77
2023/02/19 09:44:49;;;;;;;40.60;19.80;;;9.90;99.90;;;;;;5029964;28;20048;-75
2023/02/19 09:47:21;;;;;;;36.17;18.55;;;10.00;99.90;;;;;;5040225;28;20053;-76
2023/02/19 09:49:54;;;;;;;30.50;16.88;;;10.00;99.90;;;;;;5032927;28;20059;-75
2023/02/19 09:52:35;;;;;;;34.75;17.58;;;10.00;99.90;;;;;;5054175;28;20027;-74
2023/02/19 09:55:22;;;;;;;35.53;17.55;;;10.00;99.90;;;;;;5061310;28;20039;-75
2023/02/19 09:57:50;;;;;;;24.33;14.95;;;9.90;99.90;;;;;;5038867;28;20033;-74
2023/02/19 10:00:27;;;;;;;23.83;14.40;;;9.90;99.90;;;;;;5029238;28;20028;-76
2023/02/19 10:03:00;;;;;;;25.33;14.68;;;9.90;99.90;;;;;;5038700;28;20495;-76
2023/02/19 10:05:27;;;;;;;23.67;14.23;;;9.90;99.90;;;;;;5050724;28;20048;-77
2023/02/19 10:07:54;;;;;;;25.50;14.25;;;9.90;99.90;;;;;;5057382;28;20390;-75
2023/02/19 10:10:27;;;;;;;24.45;15.32;;;10.00;99.90;;;;;;5013973;28;21124;-75
2023/02/19 10:12:58;;;;;;;31.30;16.77;;;10.00;99.90;;;;;;5036394;28;20051;-74
2023/02/19 10:15:39;;;;;;;30.17;18.33;;;10.00;99.90;;;;;;5041614;28;20040;-74
2023/02/19 10:18:06;;;;;;;32.15;17.65;;;10.00;99.90;;;;;;5055821;28;20040;-77
2023/02/19 10:20:32;;;;;;;26.33;17.20;;;10.00;99.90;;;;;;5054080;28;20032;-75
2023/02/19 10:23:06;;;;;;;33.83;19.00;;;9.90;99.90;;;;;;5056439;28;20035;-76
2023/02/19 10:25:33;;;;;;;29.40;19.10;;;9.90;99.90;;;;;;5060109;28;20032;-77
2023/02/19 10:28:01;;;;;;;32.75;18.05;;;9.80;99.90;;;;;;5040801;28;20494;-78
2023/02/19 10:30:33;;;;;;;33.50;17.83;;;9.80;99.90;;;;;;5052638;28;20032;-76
2023/02/19 10:33:03;;;;;;;25.88;18.63;;;9.80;99.90;;;;;;5054891;28;20037;-73
2023/02/19 10:35:36;;;;;;;27.20;16.92;;;9.70;99.90;;;;;;5041228;28;20040;-77
2023/02/19 10:38:05;;;;;;;31.17;18.95;;;9.70;99.90;;;;;;5057511;28;20044;-78
2023/02/19 10:40:32;;;;;;;29.45;18.17;;;9.70;99.90;;;;;;5054327;28;20051;-78
2023/02/19 10:43:01;;;;;;;33.55;19.08;;;9.70;99.90;;;;;;5052995;28;20734;-76
2023/02/19 10:45:38;;;;;;;27.95;18.33;;;9.70;99.90;;;;;;5057905;28;20422;-77
2023/02/19 10:48:08;;;;;;;30.35;18.90;;;9.70;99.90;;;;;;5039879;28;20033;-76
2023/02/19 10:50:46;;;;;;;25.83;15.32;;;9.70;99.90;;;;;;5053564;28;20040;-76
2023/02/19 10:53:24;;;;;;;25.90;13.85;;;9.70;99.90;;;;;;5043418;28;20040;-76
2023/02/19 10:56:08;;;;;;;16.10;10.65;;;9.70;99.90;;;;;;5046519;28;20036;-79
2023/02/19 10:58:36;;;;;;;12.38;8.15;;;9.70;99.90;;;;;;5052550;28;20856;-77
2023/02/19 11:01:18;;;;;;;10.93;6.60;;;9.70;99.90;;;;;;5050492;28;20043;-78
2023/02/19 11:03:46;;;;;;;11.55;5.97;;;9.60;99.90;;;;;;5042213;28;20032;-80
2023/02/19 11:06:15;;;;;;;5.63;4.18;;;9.60;99.90;;;;;;5057359;28;20036;-78
2023/02/19 11:08:58;;;;;;;6.18;3.75;;;9.70;99.90;;;;;;5049470;28;20036;-78
2023/02/19 11:11:29;;;;;;;;;;;9.60;99.90;;;;;;5047739;28;20052;-77
2023/02/19 11:13:58;;;;;;;8.77;3.63;;;9.60;99.90;;;;;;5047592;28;19920;-80
2023/02/19 11:16:38;;;;;;;6.00;3.50;;;9.60;99.90;;;;;;5033782;28;20118;-77
2023/02/19 11:19:05;;;;;;;6.45;3.53;;;9.70;99.90;;;;;;5064078;28;20028;-78
2023/02/19 11:21:32;;;;;;;7.15;3.97;;;9.70;99.90;;;;;;5049054;28;20395;-77
2023/02/19 11:24:05;;;;;;;5.80;3.53;;;9.60;99.90;;;;;;5048153;28;20032;-76
2023/02/19 11:26:37;;;;;;;8.32;3.42;;;9.60;99.90;;;;;;5049803;28;20032;-76
2023/02/19 11:29:18;;;;;;;5.20;2.78;;;9.60;99.90;;;;;;5042640;28;20039;-77
2023/02/19 11:31:45;;;;;;;4.93;2.80;;;9.60;99.90;;;;;;5047379;28;20409;-76
2023/02/19 11:34:16;;;;;;;8.32;3.67;;;9.70;99.90;;;;;;5066881;28;20310;-76
2023/02/19 11:36:42;;;;;;;11.57;5.05;;;9.70;99.90;;;;;;5062219;28;20038;-75
2023/02/19 11:39:23;;;;;;;10.60;4.97;;;9.80;99.90;;;;;;5044129;28;20051;-75
2023/02/19 11:41:58;;;;;;;10.07;5.53;;;9.80;99.90;;;;;;5046660;28;20029;-75
2023/02/19 11:44:40;;;;;;;7.93;4.60;;;9.90;99.90;;;;;;5042949;28;20039;-76
2023/02/19 11:47:27;;;;;;;6.53;3.42;;;10.00;99.90;;;;;;5048239;28;20138;-75
2023/02/19 11:50:21;;;;;;;8.65;3.58;;;9.90;99.90;;;;;;5044952;28;20024;-77
2023/02/19 11:53:19;;;;;;;5.85;3.05;;;10.00;99.90;;;;;;5054590;28;20040;-76
2023/02/19 11:56:08;;;;;;;5.90;3.58;;;10.00;99.90;;;;;;5048944;28;20516;-75
2023/02/19 11:58:43;;;;;;;7.80;3.72;;;10.20;99.90;;;;;;5034422;28;20035;-77
2023/02/19 12:01:15;;;;;;;5.65;3.22;;;10.20;99.90;;;;;;5043338;28;20035;-75
2023/02/19 12:04:03;;;;;;;7.30;3.13;;;10.30;99.90;;;;;;5063213;28;20032;-76
2023/02/19 12:06:50;;;;;;;6.53;3.88;;;10.50;99.90;;;;;;5064819;28;20048;-75
2023/02/19 12:09:44;;;;;;;6.25;4.13;;;10.50;99.90;;;;;;5044846;28;20032;-75
2023/02/19 12:12:38;;;;;;;4.95;3.35;;;10.60;99.90;;;;;;5032041;28;20391;-76
2023/02/19 12:15:28;;;;;;;8.18;3.47;;;10.70;99.90;;;;;;4991165;28;20044;-75
2023/02/19 12:18:05;;;;;;;4.18;3.67;;;10.80;99.90;;;;;;5024762;28;20040;-76
2023/02/19 12:20:31;;;;;;;4.07;2.65;;;10.80;99.90;;;;;;5045223;28;20035;-74
2023/02/19 12:23:00;;;;;;;5.90;2.65;;;10.80;99.90;;;;;;5032003;28;20044;-76
2023/02/19 12:25:37;;;;;;;4.88;3.33;;;10.70;99.90;;;;;;5050118;28;20476;-75
2023/02/19 12:28:18;;;;;;;4.65;2.88;;;10.70;99.90;;;;;;5064784;28;20036;-75
2023/02/19 12:31:14;;;;;;;3.47;1.92;;;10.60;99.90;;;;;;5053641;28;20035;-75
2023/02/19 12:34:00;;;;;;;3.90;1.90;;;10.50;99.90;;;;;;5037059;28;20044;-75
2023/02/19 12:36:45;;;;;;;2.00;1.17;;;10.40;99.90;;;;;;5065719;28;20027;-75
2023/02/19 12:39:44;;;;;;;2.78;1.45;;;10.20;99.90;;;;;;5062727;28;20031;-74
2023/02/19 12:42:44;;;;;;;2.50;1.40;;;10.20;99.90;;;;;;5045919;28;20484;-77
2023/02/19 12:45:28;;;;;;;2.78;1.60;;;10.00;99.90;;;;;;5067463;28;20403;-75
2023/02/19 12:48:05;;;;;;;2.33;1.17;;;10.00;99.90;;;;;;5064421;28;20039;-76
2023/02/19 12:50:34;;;;;;;2.40;1.55;;;10.00;99.90;;;;;;5046376;28;20032;-75
2023/02/19 12:53:08;;;;;;;3.17;1.23;;;10.00;99.90;;;;;;5069058;28;20464;-74
2023/02/19 12:55:40;;;;;;;1.80;1.10;;;10.00;99.90;;;;;;5065647;28;20032;-75
2023/02/19 12:58:15;;;;;;;2.28;1.40;;;9.90;99.90;;;;;;5058588;28;20039;-74
2023/02/19 13:00:47;;;;;;;1.92;1.27;;;9.90;99.90;;;;;;5066234;28;20044;-75
2023/02/19 13:03:20;;;;;;;1.67;1.00;;;9.80;99.90;;;;;;5023856;28;20044;-74
2023/02/19 13:05:57;;;;;;;2.30;1.45;;;9.80;99.90;;;;;;5045700;28;20028;-74
2023/02/19 13:08:26;;;;;;;1.92;1.45;;;9.70;99.90;;;;;;5043302;28;20047;-74
2023/02/19 13:11:04;;;;;;;2.67;1.50;;;9.70;99.90;;;;;;5055020;28;20036;-76
2023/02/19 13:13:41;;;;;;;2.33;1.25;;;9.70;99.90;;;;;;5048064;28;20036;-77
2023/02/19 13:16:16;;;;;;;13.30;9.45;;;9.70;99.90;;;;;;5057429;28;20454;-74
2023/02/19 13:18:53;;;;;;;15.00;12.10;;;9.70;99.90;;;;;;5066635;28;21623;-74
2023/02/19 13:24:34;;;;;;;4.40;3.70;;;9.70;99.90;;;;;;5047146;28;20028;-78